Time;durP1;ratioP1;P1;durP2;ratioP2;P2;SDS_P1;SDS_P2;PMS_P1;PMS_P2;Temp;Humidity;BMP_temperature;BMP_pressure;BME280_temperature;BME280_humidity;BME280_pressure;Samples;Min_cycle;Max_cycle;Signal;HPM_P1;HPM_P2
2022/03/19 00:01:47;;;;;;;3.40;1.92;;;;;;;8.48;69.66;104536.63;5078408;27;116319;-35
2022/03/19 00:04:12;;;;;;;7.95;2.05;;;;;;;8.37;69.43;104534.72;5078103;27;99674;-35
2022/03/19 00:06:39;;;;;;;4.57;1.98;;;;;;;8.38;69.99;104526.63;5092670;27;97232;-35
2022/03/19 00:09:07;;;;;;;6.35;1.73;;;;;;;8.45;70.06;104552.81;5080145;27;96713;-35
2022/03/19 00:11:34;;;;;;;3.70;2.30;;;;;;;8.44;69.97;104551.03;5080726;27;96780;-35
2022/03/19 00:13:59;;;;;;;3.58;1.67;;;;;;;8.39;69.95;104546.41;5080361;27;100928;-35
2022/03/19 00:16:24;;;;;;;4.07;1.95;;;;;;;8.38;70.44;104534.72;5099178;27;97315;-35
2022/03/19 00:18:50;;;;;;;2.45;1.60;;;;;;;8.37;69.64;104537.44;5099055;27;96567;-35
2022/03/19 00:21:16;;;;;;;4.15;1.70;;;;;;;8.30;69.83;104534.66;5099166;27;96789;-36
2022/03/19 00:23:41;;;;;;;3.90;1.88;;;;;;;8.27;70.07;104541.81;5098776;27;99464;-35
2022/03/19 00:26:08;;;;;;;3.15;1.55;;;;;;;8.27;69.91;104544.53;5099179;27;97815;-35
2022/03/19 00:28:33;;;;;;;6.05;2.30;;;;;;;8.30;70.09;104549.97;5080403;27;96626;-35
2022/03/19 00:30:58;;;;;;;1.75;1.20;;;;;;;8.28;69.88;104547.25;5098769;27;96779;-35
2022/03/19 00:33:24;;;;;;;5.22;1.77;;;;;;;8.29;69.50;104551.78;5097879;27;100508;-35
2022/03/19 00:35:49;;;;;;;2.67;1.65;;;;;;;8.20;70.06;104546.31;5080282;27;100594;-35
2022/03/19 00:38:16;;;;;;;2.30;1.35;;;;;;;8.15;69.46;104544.44;5097922;27;114635;-35
2022/03/19 00:40:42;;;;;;;3.28;1.83;;;;;;;8.15;70.48;104547.13;5079920;27;96822;-35
2022/03/19 00:43:07;;;;;;;4.82;1.70;;;;;;;8.11;69.52;104542.63;5098594;27;97885;-34
2022/03/19 00:45:33;;;;;;;2.95;1.65;;;;;;;8.13;69.29;104552.53;5097785;27;119947;-35
2022/03/19 00:47:58;;;;;;;3.60;1.48;;;;;;;8.09;69.47;104558.81;5098539;27;98113;-35
2022/03/19 00:50:24;;;;;;;2.72;1.67;;;;;;;8.00;70.08;104548.81;5099050;27;96812;-35
2022/03/19 00:52:49;;;;;;;3.47;2.03;;;;;;;7.95;69.58;104550.56;5097441;27;99272;-35
2022/03/19 00:55:14;;;;;;;5.32;1.75;;;;;;;7.91;70.88;104548.72;5096717;27;125473;-34
2022/03/19 00:57:41;;;;;;;3.33;1.67;;;;;;;7.86;70.53;104548.72;5097636;27;98891;-35
2022/03/19 01:00:11;;;;;;;2.65;1.65;;;;;;;7.92;71.29;104557.75;5098481;27;96795;-35
2022/03/19 01:02:38;;;;;;;2.10;1.20;;;;;;;7.91;71.39;104553.22;5079168;27;100716;-35
2022/03/19 01:05:04;;;;;;;13.75;1.48;;;;;;;7.86;70.64;104537.00;5079167;27;101612;-34
2022/03/19 01:07:30;;;;;;;5.65;1.80;;;;;;;7.96;70.88;104556.88;5079985;27;96457;-35
2022/03/19 01:09:55;;;;;;;4.13;1.65;;;;;;;7.91;71.14;104553.22;5098515;27;96772;-35
2022/03/19 01:12:20;;;;;;;6.47;1.35;;;;;;;7.89;71.57;104550.53;5098317;27;97900;-35
2022/03/19 01:14:45;;;;;;;4.53;1.23;;;;;;;7.87;71.17;104547.81;5098517;27;97820;-35
2022/03/19 01:17:11;;;;;;;3.83;2.20;;;;;;;7.89;70.17;104545.13;5098079;27;96538;-35
2022/03/19 01:19:54;;;;;;;4.32;1.42;;;;;;;7.84;71.07;104541.47;5098112;27;96803;-36
2022/03/19 01:22:24;;;;;;;3.35;1.83;;;;;;;7.78;70.64;104533.31;5097255;27;99316;-36
2022/03/19 01:24:50;;;;;;;2.38;1.73;;;;;;;7.80;70.19;104539.66;5079057;27;100845;-36
2022/03/19 01:27:15;;;;;;;4.65;2.00;;;;;;;7.75;71.52;104541.41;5098114;27;96461;-37
2022/03/19 01:29:41;;;;;;;7.15;1.90;;;;;;;7.72;71.57;104541.34;5098066;27;96807;-36
2022/03/19 01:32:07;;;;;;;2.70;1.63;;;;;;;7.71;70.86;104528.75;5097337;27;112435;-36
2022/03/19 01:34:32;;;;;;;2.75;1.15;;;;;;;7.70;71.47;104532.31;5079094;27;100892;-37
2022/03/19 01:36:57;;;;;;;2.60;1.25;;;;;;;7.70;70.90;104529.63;5097478;27;107788;-36
2022/03/19 01:39:22;;;;;;;2.97;1.42;;;;;;;7.67;71.83;104533.22;5097973;27;96812;-36
2022/03/19 01:41:48;;;;;;;5.90;1.52;;;;;;;7.60;71.06;104531.34;5096203;27;126414;-36
2022/03/19 01:44:20;;;;;;;3.65;1.48;;;;;;;7.62;70.82;104527.75;5096801;27;115514;-37
2022/03/19 01:47:10;;;;;;;4.80;1.90;;;;;;;7.55;71.45;104523.19;5097150;27;96461;-37
2022/03/19 01:49:36;;;;;;;3.17;1.60;;;;;;;7.54;71.91;104520.50;5079153;27;96711;-37
2022/03/19 01:52:03;;;;;;;2.53;1.63;;;;;;;7.61;71.93;104527.75;5078726;27;100682;-36
2022/03/19 01:54:34;;;;;;;4.93;1.63;;;;;;;7.60;72.12;104531.34;5096976;27;99911;-36
2022/03/19 01:57:01;;;;;;;1.65;1.42;;;;;;;7.52;71.30;104509.69;5079097;27;96774;-36
2022/03/19 01:59:30;;;;;;;1.50;0.90;;;;;;;7.54;71.89;104516.00;5079042;27;96872;-37
2022/03/19 02:01:56;;;;;;;3.40;1.77;;;;;;;7.56;71.72;104514.22;5078631;27;100903;-36
2022/03/19 02:04:22;;;;;;;4.97;1.95;;;;;;;7.48;72.21;104496.13;5078296;27;100737;-37
2022/03/19 02:06:47;;;;;;;6.32;1.88;;;;;;;7.42;71.99;104494.28;5097008;27;96449;-35
2022/03/19 02:09:13;;;;;;;8.57;2.03;;;;;;;7.43;71.96;104497.00;5078760;27;96797;-37
2022/03/19 02:11:39;;;;;;;5.50;1.25;;;;;;;7.42;71.97;104503.28;5078088;27;101135;-36
2022/03/19 02:14:04;;;;;;;3.15;1.73;;;;;;;7.37;72.29;104505.03;5097176;27;97770;-36
2022/03/19 02:16:30;;;;;;;4.32;1.75;;;;;;;7.29;72.37;104486.94;5097220;27;96477;-36
2022/03/19 02:18:59;;;;;;;3.15;1.10;;;;;;;7.36;71.94;104500.50;5097111;27;96934;-36
2022/03/19 02:21:25;;;;;;;3.33;1.10;;;;;;;7.30;71.69;104488.78;5078300;27;101098;-37
2022/03/19 02:26:46;;;;;;;3.00;1.20;;;;;;;7.27;72.22;104502.19;5097791;27;96525;-36
2022/03/19 02:29:11;;;;;;;3.45;1.35;;;;;;;7.18;71.75;104492.25;5097407;27;96735;-37
2022/03/19 02:31:40;;;;;;;1.50;1.02;;;;;;;7.21;71.33;104495.84;5096845;27;97345;-36
2022/03/19 02:34:08;;;;;;;1.20;1.00;;;;;;;7.16;72.34;104494.00;5077930;27;101125;-37
2022/03/19 02:36:37;;;;;;;3.20;1.25;;;;;;;7.20;72.36;104496.75;5077800;27;96541;-36
2022/03/19 02:39:31;;;;;;;1.45;1.08;;;;;;;7.17;73.29;104494.00;5096981;27;97247;-37
2022/03/19 02:41:58;;;;;;;1.42;1.00;;;;;;;7.15;72.42;104495.81;5074192;27;101294;-36
2022/03/19 02:44:24;;;;;;;3.45;1.63;;;;;;;7.16;72.36;104492.22;5077810;27;100805;-37
2022/03/19 02:46:53;;;;;;;2.70;1.40;;;;;;;7.15;72.91;104482.31;5096995;27;96595;-37
2022/03/19 02:49:19;;;;;;;3.40;1.42;;;;;;;7.13;72.11;104481.41;5078221;27;96785;-37
2022/03/19 02:51:46;;;;;;;1.13;0.90;;;;;;;7.06;72.60;104478.63;5096903;27;97361;-36
2022/03/19 02:54:14;;;;;;;3.75;1.52;;;;;;;7.00;72.12;104469.53;5077957;27;101506;-36
2022/03/19 02:56:42;;;;;;;3.85;1.25;;;;;;;6.94;72.90;104474.88;5078107;27;96520;-36
2022/03/19 02:59:17;;;;;;;3.17;1.38;;;;;;;6.89;73.03;104470.31;5077807;27;96924;-36
2022/03/19 03:01:43;;;;;;;1.67;1.27;;;;;;;6.87;72.37;104480.19;5078022;27;99780;-37
2022/03/19 03:04:09;;;;;;;2.78;1.45;;;;;;;6.89;72.30;104478.38;5077269;27;100663;-36
2022/03/19 03:06:36;;;;;;;2.95;1.55;;;;;;;6.79;72.71;104467.53;5095479;27;115902;-37
2022/03/19 03:09:02;;;;;;;4.22;1.25;;;;;;;6.81;72.80;104479.19;5060966;27;96785;-36
2022/03/19 03:11:27;;;;;;;4.80;1.50;;;;;;;6.71;72.10;104463.81;5096241;27;98173;-37
2022/03/19 03:13:52;;;;;;;2.10;1.25;;;;;;;6.68;73.27;104457.50;5095542;27;114915;-36
2022/03/19 03:16:18;;;;;;;1.33;0.90;;;;;;;6.75;73.67;104457.59;5095413;27;96469;-36
2022/03/19 03:18:44;;;;;;;2.03;1.13;;;;;;;6.72;72.48;104449.47;5096680;27;96845;-36
2022/03/19 03:21:10;;;;;;;0.75;0.70;;;;;;;6.68;73.51;104450.31;5077426;27;100845;-37
2022/03/19 03:23:35;;;;;;;4.07;1.05;;;;;;;6.71;73.39;104455.72;5077375;27;100601;-36
2022/03/19 03:26:00;;;;;;;4.97;1.17;;;;;;;6.64;73.74;104453.84;5095441;27;101877;-36
2022/03/19 03:28:27;;;;;;;1.58;0.90;;;;;;;6.60;73.52;104446.59;5095580;27;107968;-37
2022/03/19 03:30:53;;;;;;;8.60;1.40;;;;;;;6.54;72.40;104444.72;5095746;27;99418;-36
2022/03/19 03:33:18;;;;;;;2.35;1.15;;;;;;;6.61;74.22;104455.59;5095952;27;97956;-37
2022/03/19 03:35:43;;;;;;;0.98;0.88;;;;;;;6.57;73.42;104450.16;5096207;27;96876;-36
2022/03/19 03:38:08;;;;;;;2.35;1.30;;;;;;;6.51;73.26;104443.81;5096043;27;96790;-37
2022/03/19 03:40:34;;;;;;;2.15;1.05;;;;;;;6.54;74.65;104460.00;5094613;27;126206;-37
2022/03/19 03:42:59;;;;;;;10.02;1.48;;;;;;;6.47;74.30;104439.25;5096207;27;97815;-36
2022/03/19 03:45:28;;;;;;;3.90;1.02;;;;;;;6.54;72.87;104450.13;5095394;27;111191;-36
2022/03/19 03:47:54;;;;;;;1.92;1.05;;;;;;;6.54;73.78;104446.53;5077273;27;96783;-37
2022/03/19 03:50:20;;;;;;;5.35;1.80;;;;;;;6.51;73.54;104444.69;5095303;27;97347;-36
2022/03/19 03:52:45;;;;;;;5.50;1.63;;;;;;;6.43;73.19;104426.63;5095913;27;97787;-37
2022/03/19 03:55:11;;;;;;;2.10;1.02;;;;;;;6.37;73.97;104433.72;5096082;27;96413;-37
2022/03/19 03:57:37;;;;;;;2.72;1.48;;;;;;;6.40;74.60;104437.34;5095566;27;96820;-37
2022/03/19 04:00:04;;;;;;;3.53;1.05;;;;;;;6.31;73.60;104427.34;5095513;27;99259;-37
2022/03/19 04:02:29;;;;;;;1.80;1.10;;;;;;;6.38;73.48;104437.31;5076929;27;100999;-36
2022/03/19 04:04:54;;;;;;;3.50;1.65;;;;;;;6.37;73.63;104438.22;5094541;27;118553;-37
2022/03/19 04:07:21;;;;;;;5.85;1.08;;;;;;;6.35;73.82;104440.88;5095453;27;103164;-36
2022/03/19 04:09:46;;;;;;;10.07;1.42;;;;;;;6.36;72.95;104433.69;5095229;27;99331;-37
2022/03/19 04:12:12;;;;;;;3.97;1.33;;;;;;;6.31;73.50;104433.63;5095271;27;97373;-37
2022/03/19 04:14:37;;;;;;;1.00;0.73;;;;;;;6.18;74.89;104420.91;5095020;27;96508;-37
2022/03/19 04:17:04;;;;;;;6.00;1.15;;;;;;;6.28;73.62;104436.28;5095018;27;108216;-37
2022/03/19 04:19:30;;;;;;;3.42;1.08;;;;;;;6.24;74.11;104430.84;5095270;27;97996;-37
2022/03/19 04:21:56;;;;;;;2.88;0.90;;;;;;;6.29;74.24;104435.44;5076599;27;101273;-36
2022/03/19 04:24:21;;;;;;;4.03;1.70;;;;;;;6.28;73.88;104436.28;5095513;27;96647;-37
2022/03/19 04:26:47;;;;;;;3.13;1.50;;;;;;;6.27;73.88;104430.88;5095760;27;96814;-37
2022/03/19 04:29:12;;;;;;;5.07;1.38;;;;;;;6.27;73.10;104441.63;5097883;27;99468;-37
2022/03/19 04:31:37;;;;;;;1.88;1.40;;;;;;;6.11;73.89;104419.00;5098392;27;121827;-37
2022/03/19 04:34:03;;;;;;;2.13;1.20;;;;;;;6.24;73.95;104436.22;5099056;27;96567;-37
2022/03/19 04:36:32;;;;;;;2.53;1.00;;;;;;;6.25;74.11;104433.56;5098779;27;96607;-37
2022/03/19 04:39:04;;;;;;;4.75;1.85;;;;;;;6.25;74.50;104436.25;5079595;27;101351;-37
2022/03/19 04:41:31;;;;;;;2.65;1.55;;;;;;;6.20;73.50;104429.91;5098205;27;98585;-37
2022/03/19 04:43:56;;;;;;;1.50;1.05;;;;;;;6.23;73.72;104431.72;5080262;27;96714;-36
2022/03/19 04:46:22;;;;;;;7.75;1.98;;;;;;;6.26;73.61;104439.84;5098934;27;96748;-37
2022/03/19 04:48:47;;;;;;;11.45;1.67;;;;;;;6.23;73.70;104437.13;5097551;27;126593;-37
2022/03/19 04:51:28;;;;;;;2.55;1.15;;;;;;;6.19;74.63;104435.25;5098434;27;97741;-36
2022/03/19 04:53:54;;;;;;;5.85;1.20;;;;;;;6.08;74.00;104430.63;5080186;27;96592;-36
2022/03/19 04:56:22;;;;;;;1.33;0.98;;;;;;;6.08;73.64;104429.72;5098800;27;98091;-36
2022/03/19 04:58:49;;;;;;;3.53;2.10;;;;;;;6.10;74.57;104434.25;5079616;27;101060;-37
2022/03/19 05:01:16;;;;;;;1.77;1.20;;;;;;;6.09;73.81;104435.09;5079533;27;100545;-36
2022/03/19 05:03:41;;;;;;;2.28;1.38;;;;;;;6.06;73.80;104420.72;5078987;27;96598;-37
2022/03/19 05:06:06;;;;;;;4.70;1.42;;;;;;;6.04;73.61;104423.38;5097831;27;96858;-37
2022/03/19 05:08:32;;;;;;;1.77;1.17;;;;;;;5.97;74.15;104417.88;5098234;27;97833;-37
2022/03/19 05:11:17;;;;;;;1.92;1.17;;;;;;;5.97;73.70;104415.19;5097973;27;99013;-37
2022/03/19 05:13:44;;;;;;;4.28;1.52;;;;;;;6.01;73.67;104423.34;5098666;27;96616;-36
2022/03/19 05:16:13;;;;;;;2.95;1.52;;;;;;;5.90;73.86;104406.06;5079642;27;96828;-37
2022/03/19 05:18:39;;;;;;;3.83;1.20;;;;;;;5.97;74.29;104420.56;5079136;27;100921;-37
2022/03/19 05:21:04;;;;;;;7.82;1.50;;;;;;;5.95;73.65;104420.53;5098203;27;99083;-37
2022/03/19 05:23:30;;;;;;;2.53;1.40;;;;;;;5.95;73.98;104425.91;5098300;27;96747;-37
2022/03/19 05:25:57;;;;;;;3.03;1.23;;;;;;;5.93;74.61;104430.34;5079702;27;96875;-36
2022/03/19 05:28:22;;;;;;;2.20;1.33;;;;;;;5.87;74.28;104425.78;5078731;27;100756;-36
2022/03/19 05:30:48;;;;;;;1.40;1.05;;;;;;;5.87;74.42;104417.69;5097867;27;97745;-36
2022/03/19 05:33:14;;;;;;;2.03;1.05;;;;;;;5.93;74.60;104423.19;5098278;27;96635;-37
2022/03/19 05:35:40;;;;;;;5.43;1.58;;;;;;;5.95;74.71;104428.59;5079395;27;96855;-37
2022/03/19 05:38:06;;;;;;;5.57;1.95;;;;;;;5.90;73.82;104420.44;5079139;27;101410;-37
2022/03/19 05:40:31;;;;;;;4.18;1.75;;;;;;;5.97;73.94;104431.34;5096448;27;99322;-37
2022/03/19 05:42:57;;;;;;;4.32;1.25;;;;;;;5.90;73.91;104431.19;5097888;27;96595;-37
2022/03/19 05:45:22;;;;;;;1.35;1.00;;;;;;;5.89;73.75;104424.00;5098423;27;96943;-37
2022/03/19 05:47:48;;;;;;;2.65;1.58;;;;;;;5.91;74.10;104430.34;5097214;27;99249;-37
2022/03/19 05:50:14;;;;;;;1.70;1.05;;;;;;;5.83;74.78;104429.28;5097400;27;99279;-36
2022/03/19 05:52:45;;;;;;;1.40;1.05;;;;;;;5.83;74.49;104440.03;5078848;27;96624;-37
2022/03/19 05:55:10;;;;;;;3.38;1.85;;;;;;;5.79;74.10;104421.13;5097829;27;96545;-37
2022/03/19 05:57:36;;;;;;;1.40;0.90;;;;;;;5.77;74.14;104422.91;5097502;27;97416;-37
2022/03/19 06:00:02;;;;;;;1.58;0.93;;;;;;;5.86;74.82;104444.56;5097229;27;99064;-36
2022/03/19 06:02:27;;;;;;;2.35;1.42;;;;;;;5.80;73.82;104433.72;5078749;27;96777;-37
2022/03/19 06:04:53;;;;;;;4.85;1.58;;;;;;;5.86;74.03;104440.09;5096949;27;96915;-37
2022/03/19 06:07:18;;;;;;;2.35;1.58;;;;;;;5.84;73.65;104435.56;5096931;27;97980;-36
2022/03/19 06:09:43;;;;;;;3.65;1.65;;;;;;;5.87;73.37;104441.91;5097607;27;97394;-37
2022/03/19 06:12:09;;;;;;;4.57;0.82;;;;;;;5.74;74.34;104418.38;5097241;27;96746;-37
2022/03/19 06:14:34;;;;;;;6.32;3.15;;;;;;;5.77;74.14;104437.28;5078790;27;96987;-36
2022/03/19 06:17:00;;;;;;;3.60;2.33;;;;;;;5.74;74.69;104434.50;5095488;27;126418;-37
2022/03/19 06:19:25;;;;;;;3.53;2.05;;;;;;;5.79;75.23;104432.78;5096346;27;113050;-36
2022/03/19 06:21:50;;;;;;;3.05;1.80;;;;;;;5.79;74.31;104434.59;5096913;27;100843;-37
2022/03/19 06:24:17;;;;;;;1.85;1.17;;;;;;;5.84;74.16;104436.50;5096533;27;110927;-37
2022/03/19 06:26:42;;;;;;;5.72;1.60;;;;;;;5.85;74.35;104442.78;5078163;27;100760;-37
2022/03/19 06:29:08;;;;;;;2.63;1.40;;;;;;;5.85;74.26;104443.66;5078128;27;101255;-37
2022/03/19 06:31:33;;;;;;;5.60;2.08;;;;;;;5.79;73.84;104424.72;5078292;27;96683;-37
2022/03/19 06:33:59;;;;;;;3.13;1.95;;;;;;;5.85;74.24;104438.28;5097588;27;96807;-37
2022/03/19 06:39:09;;;;;;;7.13;3.47;;;;;;;5.88;73.74;104438.34;5097153;27;97008;-36
2022/03/19 06:41:34;;;;;;;7.25;2.47;;;;;;;5.93;74.61;104441.09;5096155;27;96703;-37
2022/03/19 06:43:59;;;;;;;6.95;2.80;;;;;;;5.90;74.18;104425.81;5096790;27;96761;-37
2022/03/19 06:46:26;;;;;;;2.83;1.58;;;;;;;5.97;74.10;104437.63;5095655;27;126554;-37
2022/03/19 06:48:51;;;;;;;6.15;2.10;;;;;;;5.96;74.19;104430.44;5077832;27;102010;-37
2022/03/19 06:51:20;;;;;;;2.78;1.17;;;;;;;6.00;74.32;104426.00;5096049;27;108764;-36
2022/03/19 06:53:47;;;;;;;2.17;1.45;;;;;;;6.05;74.24;104413.50;5096806;27;96777;-37
2022/03/19 06:56:13;;;;;;;4.75;1.70;;;;;;;6.19;74.86;104436.16;5077595;27;102711;-37
2022/03/19 06:58:39;;;;;;;7.65;1.98;;;;;;;6.29;73.23;104426.41;5096440;27;99079;-37
2022/03/19 07:01:04;;;;;;;3.00;1.67;;;;;;;6.44;73.36;104428.44;5078029;27;96585;-36
2022/03/19 07:03:31;;;;;;;2.65;1.38;;;;;;;6.52;73.27;104430.34;5096601;27;96803;-37
2022/03/19 07:05:57;;;;;;;2.05;1.38;;;;;;;6.71;72.61;104423.38;5076666;27;100751;-37
2022/03/19 07:08:22;;;;;;;3.90;1.48;;;;;;;6.90;72.60;104429.00;5077510;27;100848;-36
2022/03/19 07:10:48;;;;;;;2.40;1.73;;;;;;;6.96;72.14;104421.91;5096321;27;96706;-37
2022/03/19 07:13:14;;;;;;;1.70;0.85;;;;;;;7.17;72.53;104429.28;5077674;27;96823;-37
2022/03/19 07:15:40;;;;;;;2.13;1.52;;;;;;;7.27;71.83;104422.25;5077553;27;100695;-36
2022/03/19 07:18:05;;;;;;;2.17;1.23;;;;;;;7.43;71.35;104426.84;5077379;27;100677;-37
2022/03/19 07:20:31;;;;;;;3.53;1.40;;;;;;;7.56;70.92;104433.28;5095880;27;104610;-37
2022/03/19 07:23:15;;;;;;;1.75;1.08;;;;;;;7.77;70.99;104431.66;5096506;27;96765;-37
2022/03/19 07:25:40;;;;;;;2.53;1.15;;;;;;;7.84;70.69;104438.91;5095317;27;108850;-37
2022/03/19 07:28:12;;;;;;;4.78;2.03;;;;;;;8.02;70.53;104433.66;5095729;27;99236;-36
2022/03/19 07:30:38;;;;;;;1.98;1.05;;;;;;;8.08;70.44;104431.00;5077029;27;96675;-36
2022/03/19 07:33:04;;;;;;;3.00;1.73;;;;;;;8.18;70.19;104434.66;5077673;27;96896;-37
2022/03/19 07:35:29;;;;;;;2.72;1.48;;;;;;;8.24;69.87;104420.28;5077338;27;100715;-37
2022/03/19 07:37:57;;;;;;;2.25;1.45;;;;;;;8.40;69.37;104419.50;5095959;27;97800;-36
2022/03/19 07:43:11;;;;;;;2.00;0.98;;;;;;;8.56;68.76;104408.78;5096652;27;96580;-37
2022/03/19 07:45:38;;;;;;;6.47;1.60;;;;;;;8.69;68.65;104414.22;5077214;27;101033;-37
2022/03/19 07:48:04;;;;;;;4.70;2.35;;;;;;;8.81;68.37;104420.59;5096010;27;97356;-36
2022/03/19 07:50:29;;;;;;;3.53;1.05;;;;;;;8.88;68.36;104423.31;5077451;27;96484;-36
2022/03/19 07:52:55;;;;;;;11.43;1.70;;;;;;;8.89;68.12;104408.91;5077113;27;96874;-36
2022/03/19 07:55:21;;;;;;;1.98;1.27;;;;;;;9.08;67.99;104426.09;5076404;27;100759;-35
2022/03/19 07:57:46;;;;;;;5.15;1.98;;;;;;;9.16;67.69;104414.38;5095473;27;99058;-36
2022/03/19 08:00:12;;;;;;;4.88;2.42;;;;;;;9.24;67.39;104409.88;5095686;27;96687;-36
2022/03/19 08:02:41;;;;;;;3.63;1.67;;;;;;;9.33;67.08;104416.19;5077850;27;96772;-36
2022/03/19 08:05:08;;;;;;;2.83;1.65;;;;;;;9.42;66.79;104414.41;5079661;27;98916;-36
2022/03/19 08:07:34;;;;;;;2.78;1.55;;;;;;;9.61;66.70;104424.34;5098854;27;98817;-36
2022/03/19 08:10:00;;;;;;;8.60;1.60;;;;;;;9.72;66.04;104414.41;5063767;27;96704;-36
2022/03/19 08:12:26;;;;;;;4.65;1.80;;;;;;;9.77;66.00;104423.44;5099944;27;96718;-35
2022/03/19 08:14:51;;;;;;;5.93;1.80;;;;;;;9.82;66.10;104419.81;5080446;27;100883;-36
2022/03/19 08:17:17;;;;;;;2.83;1.48;;;;;;;9.82;66.08;104417.09;5098574;27;114081;-35
2022/03/19 08:19:42;;;;;;;2.33;0.95;;;;;;;9.75;65.15;104414.41;5080121;27;96466;-36
2022/03/19 08:22:08;;;;;;;9.20;1.88;;;;;;;9.78;65.43;104400.88;5099090;27;96936;-36
2022/03/19 08:24:34;;;;;;;4.38;1.48;;;;;;;9.85;65.26;104419.84;5098992;27;97582;-35
2022/03/19 08:27:01;;;;;;;4.50;1.83;;;;;;;9.85;65.44;104415.31;5080173;27;100965;-35
2022/03/19 08:29:27;;;;;;;6.95;1.83;;;;;;;9.88;65.11;104408.97;5098914;27;96506;-35
2022/03/19 08:31:52;;;;;;;2.78;1.27;;;;;;;9.90;64.86;104407.19;5080590;27;96791;-36
2022/03/19 08:34:17;;;;;;;2.10;1.10;;;;;;;9.88;64.82;104412.59;5098898;27;97834;-36
2022/03/19 08:36:43;;;;;;;1.02;0.88;;;;;;;9.88;65.39;104414.41;5098989;27;99125;-36
2022/03/19 08:41:53;;;;;;;3.00;1.20;;;;;;;9.84;64.28;104407.19;5098979;27;96687;-36
2022/03/19 08:44:18;;;;;;;2.30;1.45;;;;;;;9.84;64.74;104405.38;5098152;27;97738;-36
2022/03/19 08:46:44;;;;;;;2.75;1.25;;;;;;;9.83;63.82;104400.88;5098303;27;99270;-36
2022/03/19 08:49:09;;;;;;;5.35;1.13;;;;;;;9.90;63.24;104412.59;5098745;27;96651;-36
2022/03/19 08:51:40;;;;;;;1.92;1.20;;;;;;;9.93;64.19;104407.16;5098030;27;116601;-36
2022/03/19 08:54:11;;;;;;;2.85;0.88;;;;;;;9.92;62.79;104408.09;5098609;27;98061;-36
2022/03/19 08:56:37;;;;;;;3.00;0.88;;;;;;;9.94;62.36;104409.00;5079867;27;98589;-36
2022/03/19 08:59:03;;;;;;;2.00;0.98;;;;;;;9.97;63.24;104399.03;5098815;27;97056;-36
2022/03/19 09:01:28;;;;;;;2.60;1.00;;;;;;;10.05;62.55;104407.13;5080140;27;96852;-36
2022/03/19 09:04:07;;;;;;;6.78;1.65;;;;;;;10.06;62.68;104395.41;5079109;27;98316;-36
2022/03/19 09:06:33;;;;;;;6.75;2.08;;;;;;;10.05;63.10;104396.31;5078474;27;100957;-35
2022/03/19 09:09:03;;;;;;;3.42;1.63;;;;;;;10.05;63.27;104393.59;5098200;27;96658;-36
2022/03/19 09:11:29;;;;;;;2.38;1.35;;;;;;;10.07;62.07;104399.03;5098632;27;96615;-36
2022/03/19 09:13:54;;;;;;;1.77;1.02;;;;;;;10.05;61.66;104390.88;5078665;27;100856;-36
2022/03/19 09:16:20;;;;;;;2.50;1.08;;;;;;;10.03;61.51;104373.72;5096947;27;113070;-36
2022/03/19 09:18:46;;;;;;;7.68;1.17;;;;;;;10.06;61.38;104391.78;5098100;27;96545;-36
2022/03/19 09:21:12;;;;;;;3.33;1.42;;;;;;;10.13;61.93;104410.75;5079503;27;97704;-36
2022/03/19 09:23:37;;;;;;;3.42;1.05;;;;;;;10.02;59.72;104385.50;5098035;27;97981;-36
2022/03/19 09:26:02;;;;;;;2.70;1.23;;;;;;;10.07;59.99;104402.63;5098573;27;97226;-36
2022/03/19 09:28:28;;;;;;;1.85;0.93;;;;;;;10.04;60.39;104394.50;5097881;27;96627;-36
2022/03/19 09:30:53;;;;;;;1.95;1.13;;;;;;;10.10;60.62;104397.19;5097856;27;96799;-36
2022/03/19 09:33:19;;;;;;;4.80;1.20;;;;;;;10.15;60.08;104387.28;5096339;27;126474;-36
2022/03/19 09:35:46;;;;;;;2.00;1.10;;;;;;;10.17;60.13;104390.84;5078999;27;100889;-36
2022/03/19 09:38:12;;;;;;;1.13;1.02;;;;;;;10.39;59.75;104386.31;5079333;27;96662;-36
2022/03/19 09:40:38;;;;;;;1.83;1.13;;;;;;;10.49;58.77;104378.16;5079257;27;96946;-36
2022/03/19 09:43:03;;;;;;;1.58;1.02;;;;;;;10.73;58.34;104379.84;5078791;27;100955;-36
2022/03/19 09:45:29;;;;;;;3.55;1.25;;;;;;;10.96;58.08;104376.97;5097835;27;98009;-36
2022/03/19 09:47:55;;;;;;;4.50;1.00;;;;;;;11.19;55.84;104366.88;5097687;27;96545;-36
2022/03/19 09:50:21;;;;;;;5.88;1.52;;;;;;;11.52;54.84;104370.22;5096339;27;96825;-36
2022/03/19 09:52:51;;;;;;;3.33;1.08;;;;;;;11.79;55.42;104370.88;5058267;27;100801;-36
2022/03/19 09:55:18;;;;;;;2.70;1.23;;;;;;;11.89;50.68;104362.66;5076777;27;98791;-36
2022/03/19 09:57:44;;;;;;;1.77;1.00;;;;;;;11.99;49.68;104362.53;5057909;27;96628;-36
2022/03/19 10:00:11;;;;;;;1.02;0.77;;;;;;;12.15;49.79;104368.72;5058604;27;96900;-36
2022/03/19 10:03:10;;;;;;;4.22;0.90;;;;;;;12.26;48.44;104367.69;5057208;27;101736;-36
2022/03/19 10:08:39;;;;;;;2.97;1.08;;;;;;;12.67;49.59;104351.75;5077118;27;96734;-36
2022/03/19 10:11:11;;;;;;;1.38;0.82;;;;;;;12.87;49.12;104333.31;5060942;27;97424;-36
2022/03/19 10:13:47;;;;;;;2.25;1.17;;;;;;;13.18;47.21;104352.78;5057980;27;100997;-35
2022/03/19 10:16:29;;;;;;;3.75;0.85;;;;;;;13.36;45.26;104328.91;5075109;27;98686;-36
2022/03/19 10:18:56;;;;;;;1.88;0.73;;;;;;;13.32;46.70;104336.25;5058336;27;96540;-36
2022/03/19 10:21:24;;;;;;;7.13;0.93;;;;;;;13.17;43.72;104318.31;5058352;27;96852;-36
2022/03/19 10:23:50;;;;;;;0.98;0.88;;;;;;;13.38;43.82;104330.69;5075657;27;99106;-37
2022/03/19 10:26:25;;;;;;;1.90;0.82;;;;;;;13.48;42.87;104338.69;5040428;27;99186;-36
2022/03/19 10:29:01;;;;;;;0.95;0.52;;;;;;;13.43;42.80;104308.81;5058084;27;96640;-36
2022/03/19 10:31:46;;;;;;;3.60;1.23;;;;;;;13.52;40.09;104316.84;5042128;27;96858;-36
2022/03/19 10:34:14;;;;;;;0.95;0.60;;;;;;;13.79;41.12;104309.06;5057692;27;99628;-36
2022/03/19 10:36:42;;;;;;;1.33;0.75;;;;;;;13.97;40.17;104299.63;5075891;27;99020;-36
2022/03/19 10:39:20;;;;;;;1.30;0.65;;;;;;;14.24;40.42;104309.94;5058668;27;96699;-36
2022/03/19 10:41:47;;;;;;;1.05;0.57;;;;;;;14.23;38.67;104293.63;5057620;27;96876;-36
2022/03/19 10:44:19;;;;;;;1.83;0.95;;;;;;;14.28;37.56;104297.16;5057082;27;101408;-35
2022/03/19 10:47:02;;;;;;;1.90;1.05;;;;;;;14.25;38.37;104297.19;5057433;27;100915;-36
2022/03/19 10:49:29;;;;;;;1.77;0.63;;;;;;;14.36;39.16;104286.97;5057082;27;96610;-35
2022/03/19 10:51:56;;;;;;;2.83;1.08;;;;;;;14.14;37.65;104278.34;5057648;27;96954;-36
2022/03/19 10:54:22;;;;;;;2.08;1.00;;;;;;;14.23;35.96;104282.72;5057278;27;100881;-35
2022/03/19 10:56:49;;;;;;;3.20;1.52;;;;;;;14.51;36.45;104288.44;5057280;27;100801;-35
2022/03/19 10:59:15;;;;;;;3.75;1.00;;;;;;;14.49;37.93;104268.50;5040563;27;96766;-35
2022/03/19 11:01:41;;;;;;;3.10;0.88;;;;;;;14.55;37.89;104264.75;5064851;27;96753;-36
2022/03/19 11:04:08;;;;;;;2.17;0.98;;;;;;;14.68;35.67;104263.50;5092488;27;97907;-35
2022/03/19 11:06:43;;;;;;;1.90;0.68;;;;;;;14.72;35.30;104264.34;5077138;27;100960;-36
2022/03/19 11:09:10;;;;;;;3.95;0.95;;;;;;;14.77;35.73;104266.03;5077828;27;96626;-36
2022/03/19 11:11:41;;;;;;;4.72;0.98;;;;;;;14.72;35.02;104261.63;5077969;27;96880;-36
2022/03/19 11:14:08;;;;;;;4.10;0.73;;;;;;;14.84;36.04;104258.59;5077159;27;100819;-35
2022/03/19 11:16:37;;;;;;;4.00;1.15;;;;;;;14.69;33.69;104243.50;5095059;27;97841;-36
2022/03/19 11:19:04;;;;;;;2.55;1.02;;;;;;;14.84;35.69;104240.38;5110633;27;96955;-36
2022/03/19 11:21:31;;;;;;;1.85;0.88;;;;;;;15.05;35.26;104252.59;5112190;27;96855;-36
2022/03/19 11:24:13;;;;;;;1.67;0.90;;;;;;;15.23;35.54;104234.84;5095903;27;97259;-36
2022/03/19 11:26:39;;;;;;;;;;;;;;;15.38;33.90;104243.56;5096319;27;99680;-36
2022/03/19 11:29:05;;;;;;;8.90;1.27;;;;;;;15.48;33.11;104232.31;5096594;27;96674;-36
2022/03/19 11:31:32;;;;;;;3.03;0.77;;;;;;;15.32;35.42;104208.19;5112471;27;96606;-36
2022/03/19 11:34:01;;;;;;;1.90;0.77;;;;;;;15.37;33.35;104222.63;5076851;27;101386;-36
2022/03/19 11:36:27;;;;;;;1.33;0.70;;;;;;;15.43;32.26;104220.63;5110325;27;100924;-36
2022/03/19 11:38:54;;;;;;;2.25;1.00;;;;;;;15.49;34.40;104205.88;5076205;27;96584;-36
2022/03/19 11:41:29;;;;;;;2.85;0.73;;;;;;;15.89;33.86;104197.44;5077245;27;96977;-36
2022/03/19 11:44:23;;;;;;;1.80;0.80;;;;;;;16.04;31.98;104206.09;5111495;27;100809;-36